Terminal Aerodrome Forecast
Issued by NWS

Home | Current Version | Previous Version | Text Only | Print | Product List | Glossary On
Versions: 1 2 3 4 5 6 7 8 9 10 11 12 13 14 15 16 17 18 19 20 21 22 23 24 25 26 27 28 29 30 31 32 33
000
FTAK31 PAFA 302103 AAB
TAFAFA
TAF AMD
PAFA 302103Z 3021/0124 24007KT 4SM -SNRA BR FEW012 BKN020 OVC035
      TEMPO 3021/3022 28012G20KT 6SM -RA BR BKN015 OVC025
     FM302200 28012G20KT P6SM VCSH BKN025 OVC040
     FM010700 26005KT P6SM SCT060 BKN120=

USA.gov is the U.S. government's official web portal to all federal, state and local government web resources and services.